METAR Data
IDs: Format: Raw Decoded Include TAF

Data at: 0104 UTC 06 Dec 2019

KSGU 060056Z AUTO 02005KT 10SM OVC055 11/07 A3019 RMK AO2 SLP219 T01110072 PNO /
KSGU 052356Z AUTO 26004KT 10SM OVC055 12/06 A3018 RMK AO2 SLP213 6//// T01220061 10128 20106 51010 PNO $
KSGU 052256Z AUTO 27003KT 10SM OVC055 12/05 A3017 RMK AO2 SLP212 T01220050 PNO $
KSGU 052156Z AUTO 27006KT 10SM OVC055 12/06 A3016 RMK AO2 SLP209 T01220056 PNO /
KSGU 052056Z AUTO 26007KT 10SM OVC060 13/06 A3015 RMK AO2 SLP203 6//// T01280056 58005 PNO $
KSGU 051956Z AUTO 26009KT 10SM OVC055 12/06 A3015 RMK AO2 SLP206 T01170061 PNO $
KSGU 051856Z AUTO 25008KT 10SM OVC060 11/07 A3017 RMK AO2 SLP211 T01110067 PNO $
KSGU 051756Z AUTO 23007KT 10SM OVC060 11/07 A3016 RMK AO2 SLP210 6//// T01110072 10111 20078 51021 PNO $
KSGU 051656Z AUTO 24009KT 10SM OVC060 11/07 A3015 RMK AO2 SLP204 T01060067 PNO $
KSGU 051556Z AUTO 17005KT 10SM BKN047 OVC065 09/07 A3012 RMK AO2 RAE08 SLP198 T00890067 PNO $
KSGU 051456Z AUTO 22007KT 10SM -RA BKN048 OVC060 08/07 A3010 RMK AO2 RAB09 SLP188 6//// T00830067 53027 PNO $
KSGU 051356Z AUTO 23006KT 10SM OVC043 09/07 A3007 RMK AO2 RAE17 SLP177 T00890067 PNO $
KSGU 051256Z AUTO 00000KT 10SM -RA OVC047 08/07 A3003 RMK AO2 RAB56 SLP164 T00830067 PNO $
KSGU 051156Z AUTO 18007KT 10SM OVC055 08/07 A3001 RMK AO2 RAB05E45 SLP157 6//// 7//// T00830067 10083 20067 51011 PNO $
KSGU 051056Z AUTO 18005KT 10SM BKN048 OVC060 08/07 A3000 RMK AO2 RAB08E18 SLP153 T00780067 PNO $
KSGU 050956Z AUTO 16003KT 10SM FEW030 OVC065 07/07 A2999 RMK AO2 SLP150 T00720072 PNO $
KSGU 050856Z AUTO 00000KT 6SM BR OVC060 07/07 A2997 RMK AO2 RAB08E24 SLP145 6//// T00670067 53003 PNO $
KSGU 050756Z AUTO 36003KT 8SM SCT075 07/07 A2996 RMK AO2 RAE52 SLP143 T00720072 PNO $
KSGU 050656Z AUTO 00000KT 10SM -RA FEW050 SCT070 OVC090 08/07 A2997 RMK AO2 SLP143 T00780072 401280044 PNO $
KSGU 050556Z AUTO 15004KT 8SM RA BKN050 BKN060 OVC085 08/07 A2997 RMK AO2 RAB10 SLP143 6//// T00780072 10089 20078 51008 PNO $
KSGU 050456Z AUTO 00000KT 10SM OVC035 08/07 A2996 RMK AO2 SLP144 T00780072 PNO $
KSGU 050356Z AUTO 20004KT 10SM BKN034 BKN042 OVC060 08/07 A2995 RMK AO2 SLP141 T00780072 PNO $
KSGU 050256Z AUTO 30009KT 10SM OVC034 08/08 A2994 RMK AO2 RAE01 SLP138 6//// T00830078 55002 PNO $
KSGU 050156Z AUTO 10007KT 10SM -RA FEW007 BKN095 OVC110 08/08 A2992 RMK AO2 SLP130 T00830083 PNO $
KSGU 050128Z AUTO 11004KT 5SM -RA BR FEW009 SCT015 OVC065 08/08 A2994 RMK AO2 PNO $
KSGU 050056Z AUTO 08003KT 10SM -RA SCT010 BKN055 OVC090 09/08 A2994 RMK AO2 SLP137 T00890083 PNO $
KSGU 050044Z AUTO 00000KT 10SM -RA FEW006 BKN031 OVC055 09/08 A2994 RMK AO2 PNO $
KSGU 050017Z AUTO 29004KT 10SM -RA FEW013 SCT025 OVC031 09/08 A2994 RMK AO2 PNO $
KSGU 042356Z AUTO 26005KT 6SM +RA BR FEW013 BKN020 OVC031 09/08 A2994 RMK AO2 SLP139 6//// T00890078 10128 20083 53004 PNO $
KSGU 042256Z AUTO 02008KT 8SM RA OVC031 09/08 A2991 RMK AO2 RAB2157 SLP125 T00940083 PNO $
KSGU 042156Z AUTO 12012KT 10SM OVC037 12/06 A2991 RMK AO2 WSHFT 2058 RAB31E48 SLP124 T01170056 PNO $
KSGU 042118Z AUTO 12013G19KT 10SM OVC050 12/05 A2992 RMK AO2 WSHFT 2058 PNO $
KSGU 042056Z AUTO 00000KT 10SM OVC050 11/05 A2993 RMK AO2 RAB27E43 SLP131 6//// T01110050 58039 PNO $
KSGU 041956Z AUTO 00000KT 10SM OVC075 09/04 A2998 RMK AO2 RAB1859E14B36E46 SLP150 T00940044 PNO $
KSGU 041856Z AUTO 21004KT 10SM FEW070 OVC085 09/04 A3003 RMK AO2 SLP164 T00890044 PNO $
KSGU 041756Z AUTO 00000KT 10SM FEW065 BKN110 08/05 A3006 RMK AO2 SLP176 6//// T00830050 10083 20044 58006 PNO $
KSGU 041656Z AUTO 00000KT 10SM OVC100 08/04 A3008 RMK AO2 SLP185 T00780044 PNO $
KSGU 041556Z AUTO 00000KT 10SM BKN110 06/04 A3008 RMK AO2 SLP187 T00610039 PNO $
KSGU 041456Z AUTO 00000KT 10SM CLR 05/04 A3008 RMK AO2 SLP185 6//// T00500039 53001 PNO $
KSGU 041356Z AUTO 00000KT 10SM CLR 05/04 A3007 RMK AO2 SLP182 T00500039 PNO $